createdAt,value
2023-01-13T00:01:24.753Z,172.60
2023-01-13T00:03:53.754Z,208.77
2023-01-13T00:06:24.264Z,159.85
2023-01-13T00:08:53.431Z,150.77
2023-01-13T00:11:22.570Z,173.10
2023-01-13T00:13:50.915Z,194.43
2023-01-13T00:16:20.563Z,224.82
2023-01-13T00:18:49.598Z,202.95
2023-01-13T00:21:20.246Z,232.40
2023-01-13T00:23:49.471Z,268.92
2023-01-13T00:26:26.945Z,246.77
2023-01-13T00:29:00.499Z,230.73
2023-01-13T00:31:29.975Z,223.10
2023-01-13T00:34:00.013Z,243.38
2023-01-13T00:36:29.139Z,223.60
2023-01-13T00:38:58.142Z,256.63
2023-01-13T00:41:27.483Z,265.90
2023-01-13T00:43:55.789Z,253.10
2023-01-13T00:46:23.884Z,181.02
2023-01-13T00:48:52.106Z,191.60
2023-01-13T00:51:21.992Z,182.57
2023-01-13T00:53:52.316Z,161.52
2023-01-13T00:56:39.706Z,161.65
2023-01-13T00:59:13.337Z,146.05
2023-01-13T01:01:42.547Z,130.98
2023-01-13T01:04:11.022Z,144.73
2023-01-13T01:06:39.212Z,148.13
2023-01-13T01:09:07.640Z,171.43
2023-01-13T01:11:35.936Z,161.50
2023-01-13T01:14:04.894Z,186.48
2023-01-13T01:16:34.522Z,187.23
2023-01-13T01:19:02.866Z,197.70
2023-01-13T01:21:31.497Z,209.73
2023-01-13T01:24:01.812Z,204.27
2023-01-13T01:26:31.883Z,215.10
2023-01-13T01:29:00.665Z,208.82
2023-01-13T01:31:32.692Z,201.93
2023-01-13T01:36:29.690Z,185.70
2023-01-13T01:39:00.030Z,171.20
2023-01-13T01:41:31.354Z,180.13
2023-01-13T01:44:19.493Z,196.50
2023-01-13T01:46:47.768Z,175.82
2023-01-13T01:49:22.003Z,191.43
2023-01-13T01:51:53.123Z,178.55
2023-01-13T01:54:25.904Z,226.02
2023-01-13T01:56:54.376Z,208.25
2023-01-13T01:59:26.275Z,233.57
2023-01-13T02:01:57.171Z,218.25
2023-01-13T02:04:31.126Z,203.18
2023-01-13T02:06:59.464Z,201.50
2023-01-13T02:09:28.182Z,176.52
2023-01-13T02:11:56.545Z,199.23
2023-01-13T02:14:28.168Z,189.10
2023-01-13T02:17:18.018Z,225.07
2023-01-13T02:19:55.479Z,225.05
2023-01-13T02:22:44.777Z,191.45
2023-01-13T02:25:26.454Z,190.85
2023-01-13T02:28:24.905Z,200.18
2023-01-13T02:31:11.127Z,188.95
2023-01-13T02:33:50.911Z,183.85
2023-01-13T02:36:31.746Z,165.30
2023-01-13T02:39:33.965Z,179.00
2023-01-13T02:42:09.467Z,166.48
2023-01-13T02:44:49.181Z,168.95
2023-01-13T02:47:26.327Z,139.02
2023-01-13T02:50:00.387Z,138.48
2023-01-13T02:52:40.159Z,134.63
2023-01-13T02:55:16.694Z,137.57
2023-01-13T02:57:47.002Z,130.02
2023-01-13T03:00:16.865Z,133.45
2023-01-13T03:02:45.067Z,144.05
2023-01-13T03:05:16.312Z,130.32
2023-01-13T03:08:02.532Z,129.55
2023-01-13T03:11:15.288Z,121.57
2023-01-13T03:14:08.195Z,134.48
2023-01-13T03:17:05.806Z,141.20
2023-01-13T03:19:42.964Z,145.85
2023-01-13T03:22:26.521Z,142.07
2023-01-13T03:25:08.168Z,121.68
2023-01-13T03:27:57.869Z,137.98
2023-01-13T03:30:41.216Z,148.68
2023-01-13T03:33:15.152Z,136.38
2023-01-13T03:35:46.810Z,131.27
2023-01-13T03:38:18.027Z,138.32
2023-01-13T03:40:54.244Z,123.72
2023-01-13T03:43:31.179Z,140.25
2023-01-13T03:46:03.778Z,119.63
2023-01-13T03:48:36.742Z,126.72
2023-01-13T03:51:08.433Z,119.68
2023-01-13T03:53:56.952Z,130.77
2023-01-13T03:56:30.844Z,99.25
2023-01-13T03:59:02.968Z,125.00
2023-01-13T04:04:54.280Z,107.82
2023-01-13T04:07:46.715Z,90.50
2023-01-13T04:12:52.712Z,82.97
2023-01-13T04:15:25.783Z,88.43
2023-01-13T04:17:54.381Z,100.78
2023-01-13T04:20:22.548Z,90.22
2023-01-13T04:22:50.841Z,102.10
2023-01-13T04:25:19.010Z,100.55
2023-01-13T04:27:47.311Z,95.65
2023-01-13T04:30:15.627Z,83.57
2023-01-13T04:32:43.818Z,99.93
2023-01-13T04:35:12.263Z,80.80
2023-01-13T04:37:40.530Z,79.68
2023-01-13T04:40:09.764Z,79.25
2023-01-13T04:42:38.067Z,77.63
2023-01-13T04:45:06.649Z,83.72
2023-01-13T04:47:35.011Z,97.60
2023-01-13T04:50:03.250Z,79.20
2023-01-13T04:52:31.657Z,80.85
2023-01-13T04:54:59.838Z,80.57
2023-01-13T04:57:28.048Z,64.70
2023-01-13T04:59:56.162Z,66.22
2023-01-13T05:02:24.473Z,68.47
2023-01-13T05:04:52.632Z,70.95
2023-01-13T05:07:20.829Z,77.47
2023-01-13T05:09:49.095Z,69.75
2023-01-13T05:12:17.283Z,74.25
2023-01-13T05:14:45.492Z,60.15
2023-01-13T05:17:21.700Z,66.40
2023-01-13T05:19:49.855Z,63.15
2023-01-13T05:22:18.180Z,60.53
2023-01-13T05:24:46.671Z,75.13
2023-01-13T05:27:14.868Z,62.70
2023-01-13T05:29:43.234Z,49.13
2023-01-13T05:32:11.371Z,46.60
2023-01-13T05:34:39.657Z,41.55
2023-01-13T05:37:08.040Z,46.63
2023-01-13T05:39:36.116Z,40.97
2023-01-13T05:42:09.002Z,47.03
2023-01-13T05:44:37.394Z,57.08
2023-01-13T05:47:06.816Z,58.22
2023-01-13T05:49:36.512Z,54.83
2023-01-13T05:52:07.035Z,55.35
2023-01-13T05:54:35.164Z,45.03
2023-01-13T05:57:03.547Z,43.47
2023-01-13T05:59:31.589Z,54.55
2023-01-13T06:01:59.762Z,52.20
2023-01-13T06:04:28.064Z,58.08
2023-01-13T06:06:56.368Z,53.33
2023-01-13T06:09:24.450Z,54.80
2023-01-13T06:11:52.788Z,53.47
2023-01-13T06:14:21.027Z,45.47
2023-01-13T06:16:49.137Z,56.25
2023-01-13T06:19:17.400Z,47.35
2023-01-13T06:21:45.602Z,50.47
2023-01-13T06:24:13.823Z,47.42
2023-01-13T06:26:42.490Z,51.63
2023-01-13T06:29:10.648Z,42.80
2023-01-13T06:31:40.599Z,45.95
2023-01-13T06:34:12.378Z,44.75
2023-01-13T06:36:51.852Z,46.10
2023-01-13T06:39:25.465Z,36.17
2023-01-13T06:41:55.186Z,38.58
2023-01-13T06:44:25.196Z,41.38
2023-01-13T06:46:53.701Z,38.78
2023-01-13T06:49:22.065Z,41.92
2023-01-13T06:51:50.221Z,52.20
2023-01-13T06:54:18.463Z,55.58
2023-01-13T06:56:46.809Z,69.63
2023-01-13T06:59:14.952Z,71.25
2023-01-13T07:01:44.253Z,83.50
2023-01-13T07:04:12.628Z,73.57
2023-01-13T07:06:40.779Z,79.90
2023-01-13T07:09:09.208Z,75.43
2023-01-13T07:11:37.431Z,99.47
2023-01-13T07:14:05.746Z,95.38
2023-01-13T07:16:33.977Z,74.25
2023-01-13T07:19:02.343Z,102.93
2023-01-13T07:21:30.647Z,64.28
2023-01-13T07:23:58.865Z,65.25
2023-01-13T07:26:27.170Z,73.07
2023-01-13T07:28:55.206Z,79.57
2023-01-13T07:31:23.462Z,80.13
2023-01-13T07:33:51.841Z,74.05
2023-01-13T07:36:20.039Z,75.10
2023-01-13T07:38:48.211Z,84.95
2023-01-13T07:41:16.836Z,74.38
2023-01-13T07:43:45.103Z,75.60
2023-01-13T07:46:13.342Z,81.97
2023-01-13T07:48:41.628Z,77.55
2023-01-13T07:51:12.117Z,85.35
2023-01-13T07:53:40.427Z,77.35
2023-01-13T07:56:09.303Z,88.47
2023-01-13T07:58:38.506Z,84.93
2023-01-13T08:01:11.523Z,79.35
2023-01-13T08:03:40.818Z,86.65
2023-01-13T08:06:09.822Z,95.07
2023-01-13T08:08:39.046Z,84.78
2023-01-13T08:11:09.031Z,78.45
2023-01-13T08:13:37.583Z,83.95
2023-01-13T08:16:12.080Z,74.68
2023-01-13T08:18:41.065Z,74.90
2023-01-13T08:21:13.000Z,76.45
2023-01-13T08:23:42.928Z,74.35
2023-01-13T08:26:14.061Z,69.20
2023-01-13T08:28:42.345Z,86.57
2023-01-13T08:31:15.496Z,83.50
2023-01-13T08:33:43.841Z,150.90
2023-01-13T08:36:13.398Z,173.60
2023-01-13T08:38:42.359Z,131.75
2023-01-13T08:41:12.687Z,105.13
2023-01-13T08:43:41.196Z,89.95
2023-01-13T08:46:09.595Z,80.25
2023-01-13T08:48:38.530Z,85.22
2023-01-13T08:51:09.379Z,84.25
2023-01-13T08:53:37.659Z,74.32
2023-01-13T08:56:09.944Z,68.68
2023-01-13T08:58:38.155Z,72.38
2023-01-13T09:01:08.033Z,67.80
2023-01-13T09:03:36.385Z,62.95
2023-01-13T09:06:04.905Z,60.80
2023-01-13T09:08:33.042Z,59.92
2023-01-13T09:11:01.339Z,61.05
2023-01-13T09:13:31.793Z,52.55
2023-01-13T09:16:00.151Z,54.70
2023-01-13T09:18:28.466Z,62.72
2023-01-13T09:20:56.787Z,61.35
2023-01-13T09:23:24.894Z,76.88
2023-01-13T09:25:53.839Z,58.58
2023-01-13T09:28:22.057Z,64.22
2023-01-13T09:30:50.332Z,49.90
2023-01-13T09:33:18.711Z,66.53
2023-01-13T09:35:46.904Z,71.22
2023-01-13T09:38:15.350Z,73.93
2023-01-13T09:40:43.567Z,71.55
2023-01-13T09:43:34.838Z,70.07
2023-01-13T09:46:15.131Z,65.95
2023-01-13T09:48:43.462Z,64.80
2023-01-13T09:51:22.488Z,66.63
2023-01-13T09:54:00.382Z,68.75
2023-01-13T09:56:28.601Z,72.93
2023-01-13T09:58:56.747Z,62.15
2023-01-13T10:01:51.012Z,60.03
2023-01-13T10:04:19.588Z,62.95
2023-01-13T10:06:58.799Z,65.05
2023-01-13T10:09:33.912Z,70.80
2023-01-13T10:12:03.130Z,64.22
2023-01-13T10:14:52.749Z,70.03
2023-01-13T10:17:32.649Z,57.78
2023-01-13T10:20:35.979Z,68.13
2023-01-13T10:23:31.561Z,71.05
2023-01-13T10:26:20.783Z,74.35
2023-01-13T10:28:56.870Z,77.28
2023-01-13T10:31:26.617Z,70.15
2023-01-13T10:34:02.657Z,68.40
2023-01-13T10:36:31.201Z,74.38
2023-01-13T10:39:10.056Z,87.25
2023-01-13T10:41:38.420Z,69.32
2023-01-13T10:44:17.850Z,72.43
2023-01-13T10:46:59.996Z,85.72
2023-01-13T10:51:56.041Z,70.47
2023-01-13T10:54:26.172Z,87.47
2023-01-13T10:57:14.050Z,73.75
2023-01-13T10:59:42.534Z,72.28
2023-01-13T11:02:34.440Z,71.75
2023-01-13T11:05:22.879Z,77.30
2023-01-13T11:07:52.683Z,74.05
2023-01-13T11:10:25.334Z,81.65
2023-01-13T11:13:10.873Z,77.53
2023-01-13T11:15:45.806Z,74.68
2023-01-13T11:18:39.289Z,56.92
2023-01-13T11:21:21.914Z,62.28
2023-01-13T11:24:11.223Z,82.05
2023-01-13T11:26:53.723Z,64.45
2023-01-13T11:29:32.696Z,75.53
2023-01-13T11:32:18.992Z,85.78
2023-01-13T11:34:52.317Z,58.30
2023-01-13T11:37:31.007Z,55.67
2023-01-13T11:40:08.002Z,52.97
2023-01-13T11:43:05.213Z,80.78
2023-01-13T11:45:44.973Z,60.97
2023-01-13T11:48:23.133Z,80.63
2023-01-13T11:51:15.819Z,72.65
2023-01-13T11:54:20.883Z,71.22
2023-01-13T11:57:39.243Z,77.68
2023-01-13T12:00:13.255Z,65.85
2023-01-13T12:03:10.075Z,70.03
2023-01-13T12:05:42.659Z,74.40
2023-01-13T12:08:32.627Z,87.53
2023-01-13T12:11:27.284Z,83.72
2023-01-13T12:14:21.051Z,73.88
2023-01-13T12:16:50.630Z,72.25
2023-01-13T12:19:31.726Z,79.68
2023-01-13T12:22:17.017Z,80.68
2023-01-13T12:24:54.247Z,71.07
2023-01-13T12:27:41.087Z,60.95
2023-01-13T12:30:29.882Z,69.00
2023-01-13T12:33:03.984Z,69.53
2023-01-13T12:35:46.745Z,77.90
2023-01-13T12:38:20.880Z,69.10
2023-01-13T12:41:30.609Z,74.28
2023-01-13T12:43:59.561Z,69.80
2023-01-13T12:46:27.645Z,74.20
2023-01-13T12:48:55.973Z,78.05
2023-01-13T12:51:28.048Z,74.97
2023-01-13T12:53:57.071Z,72.47
2023-01-13T12:56:44.128Z,66.07
2023-01-13T12:59:18.553Z,80.57
2023-01-13T13:01:52.074Z,71.32
2023-01-13T13:04:44.933Z,68.03
2023-01-13T13:07:45.344Z,73.32
2023-01-13T13:10:19.419Z,94.18
2023-01-13T13:12:47.616Z,62.88
2023-01-13T13:15:30.671Z,80.00
2023-01-13T13:18:20.356Z,76.28
2023-01-13T13:21:04.276Z,81.13
2023-01-13T13:23:38.544Z,88.03
2023-01-13T13:26:15.875Z,63.15
2023-01-13T13:29:22.947Z,79.20
2023-01-13T13:32:15.734Z,71.63
2023-01-13T13:35:05.412Z,68.47
2023-01-13T13:38:01.533Z,68.57
2023-01-13T13:40:39.197Z,92.88
2023-01-13T13:43:13.850Z,81.07
2023-01-13T13:45:51.749Z,70.78
2023-01-13T13:48:21.925Z,80.30
2023-01-13T13:50:52.715Z,76.32
2023-01-13T13:53:21.419Z,72.93
2023-01-13T13:56:17.228Z,64.40
2023-01-13T13:58:47.985Z,108.18
2023-01-13T14:01:29.589Z,62.60
2023-01-13T14:04:13.304Z,95.75
2023-01-13T14:07:00.351Z,63.85
2023-01-13T14:09:39.456Z,75.15
2023-01-13T14:12:20.290Z,110.65
2023-01-13T14:14:49.552Z,72.57
2023-01-13T14:17:29.168Z,79.00
2023-01-13T14:20:03.356Z,60.80
2023-01-13T14:22:32.873Z,61.53
2023-01-13T14:25:01.232Z,69.13
2023-01-13T14:27:31.386Z,89.93
2023-01-13T14:30:01.319Z,89.30
2023-01-13T14:32:36.336Z,57.80
2023-01-13T14:35:08.317Z,86.28
2023-01-13T14:40:27.114Z,80.53
2023-01-13T14:43:09.146Z,72.30
2023-01-13T14:45:37.455Z,68.70
2023-01-13T14:48:09.902Z,64.78
2023-01-13T14:50:38.754Z,81.72
2023-01-13T14:53:38.501Z,90.72
2023-01-13T14:56:40.661Z,75.50
2023-01-13T14:59:36.703Z,85.05
2023-01-13T15:02:34.031Z,67.70
2023-01-13T15:05:18.273Z,77.15
2023-01-13T15:07:52.049Z,70.07
2023-01-13T15:10:23.877Z,84.80
2023-01-13T15:12:54.509Z,98.15
2023-01-13T15:15:43.011Z,70.70
2023-01-13T15:18:15.197Z,77.25
2023-01-13T15:20:43.942Z,75.30
2023-01-13T15:23:12.773Z,67.93
2023-01-13T15:25:43.251Z,69.13
2023-01-13T15:28:21.053Z,80.45
2023-01-13T15:30:51.235Z,65.30
2023-01-13T15:33:20.634Z,75.18
2023-01-13T15:35:51.072Z,68.28
2023-01-13T15:38:21.684Z,68.93
2023-01-13T15:40:51.936Z,77.10
2023-01-13T15:43:23.508Z,78.72
2023-01-13T15:45:51.938Z,77.55
2023-01-13T15:48:23.944Z,70.68
2023-01-13T15:50:52.578Z,57.13
2023-01-13T15:53:21.453Z,70.20
2023-01-13T15:55:54.262Z,93.60
2023-01-13T15:58:28.141Z,57.50
2023-01-13T16:00:56.895Z,74.00
2023-01-13T16:03:25.210Z,84.78
2023-01-13T16:05:53.579Z,71.50
2023-01-13T16:08:23.506Z,76.60
2023-01-13T16:10:51.752Z,68.20
2023-01-13T16:13:19.916Z,66.32
2023-01-13T16:15:50.430Z,71.47
2023-01-13T16:18:23.611Z,74.90
2023-01-13T16:20:52.952Z,79.78
2023-01-13T16:23:21.685Z,89.30
2023-01-13T16:25:50.838Z,82.47
2023-01-13T16:28:25.092Z,77.90
2023-01-13T16:30:53.346Z,76.65
2023-01-13T16:33:21.811Z,84.78
2023-01-13T16:36:10.755Z,75.32
2023-01-13T16:38:38.383Z,75.20
2023-01-13T16:41:06.667Z,96.53
2023-01-13T16:43:35.300Z,82.95
2023-01-13T16:46:09.942Z,91.20
2023-01-13T16:48:38.170Z,111.55
2023-01-13T16:51:06.532Z,81.68
2023-01-13T16:53:34.904Z,82.13
2023-01-13T16:56:03.182Z,96.53
2023-01-13T16:58:31.567Z,82.95
2023-01-13T17:00:59.929Z,78.50
2023-01-13T17:03:28.217Z,90.15
2023-01-13T17:05:56.471Z,82.93
2023-01-13T17:08:24.947Z,78.45
2023-01-13T17:10:53.116Z,85.53
2023-01-13T17:13:21.553Z,91.20
2023-01-13T17:15:49.708Z,89.30
2023-01-13T17:18:17.800Z,73.05
2023-01-13T17:20:46.140Z,91.80
2023-01-13T17:23:14.411Z,120.38
2023-01-13T17:25:42.818Z,96.78
2023-01-13T17:28:12.488Z,97.03
2023-01-13T17:30:43.882Z,85.20
2023-01-13T17:33:12.049Z,79.03
2023-01-13T17:35:40.368Z,99.50
2023-01-13T17:38:08.563Z,110.50
2023-01-13T17:40:37.965Z,105.18
2023-01-13T17:43:06.226Z,110.65
2023-01-13T17:45:34.394Z,127.25
2023-01-13T17:48:02.732Z,112.47
2023-01-13T17:50:30.771Z,116.18
2023-01-13T17:52:59.124Z,110.93
2023-01-13T17:55:27.497Z,125.43
2023-01-13T17:57:55.797Z,114.70
2023-01-13T18:00:23.995Z,131.52
2023-01-13T18:02:52.340Z,121.60
2023-01-13T18:05:20.664Z,113.82
2023-01-13T18:07:48.826Z,131.65
2023-01-13T18:10:17.220Z,122.68
2023-01-13T18:12:45.553Z,112.80
2023-01-13T18:15:13.818Z,129.90
2023-01-13T18:17:42.056Z,166.93
2023-01-13T18:20:15.667Z,123.95
2023-01-13T18:22:43.960Z,143.85
2023-01-13T18:25:14.881Z,156.90
2023-01-13T18:27:43.279Z,141.68
2023-01-13T18:30:12.459Z,116.78
2023-01-13T18:32:40.810Z,114.70
2023-01-13T18:35:10.599Z,124.40
2023-01-13T18:37:41.739Z,139.05
2023-01-13T18:40:12.819Z,176.20
2023-01-13T18:42:41.887Z,165.60
2023-01-13T18:45:10.700Z,127.47
2023-01-13T18:47:38.838Z,137.73
2023-01-13T18:50:07.666Z,131.88
2023-01-13T18:52:37.171Z,123.07
2023-01-13T18:55:05.727Z,110.63
2023-01-13T18:57:35.897Z,102.18
2023-01-13T19:00:04.673Z,155.07
2023-01-13T19:02:32.831Z,125.07
2023-01-13T19:05:01.240Z,142.18
2023-01-13T19:07:29.520Z,135.02
2023-01-13T19:09:57.699Z,132.32
2023-01-13T19:12:27.335Z,116.45
2023-01-13T19:14:56.875Z,129.13
2023-01-13T19:17:26.601Z,136.63
2023-01-13T19:19:57.431Z,126.63
2023-01-13T19:22:28.605Z,105.20
2023-01-13T19:24:58.077Z,130.33
2023-01-13T19:27:27.474Z,124.43
2023-01-13T19:29:56.236Z,133.95
2023-01-13T19:32:25.437Z,140.13
2023-01-13T19:34:54.125Z,118.38
2023-01-13T19:37:22.634Z,114.75
2023-01-13T19:39:52.326Z,125.28
2023-01-13T19:42:20.600Z,119.55
2023-01-13T19:44:49.154Z,131.88
2023-01-13T19:47:17.699Z,123.65
2023-01-13T19:49:46.643Z,131.07
2023-01-13T19:52:15.070Z,97.35
2023-01-13T19:54:46.474Z,104.43
2023-01-13T19:57:15.914Z,93.32
2023-01-13T19:59:43.981Z,89.45
2023-01-13T20:02:22.265Z,88.95
2023-01-13T20:04:50.488Z,106.00
2023-01-13T20:07:18.778Z,111.57
2023-01-13T20:09:47.166Z,87.88
2023-01-13T20:12:15.463Z,106.65
2023-01-13T20:14:44.124Z,123.35
2023-01-13T20:17:13.929Z,109.57
2023-01-13T20:19:42.807Z,109.25
2023-01-13T20:22:11.641Z,92.88
2023-01-13T20:24:39.950Z,117.03
2023-01-13T20:27:08.355Z,114.22
2023-01-13T20:29:36.713Z,104.35
2023-01-13T20:32:05.271Z,104.30
2023-01-13T20:34:33.790Z,111.32
2023-01-13T20:37:02.025Z,114.20
2023-01-13T20:39:30.343Z,106.25
2023-01-13T20:41:58.704Z,129.00
2023-01-13T20:44:27.188Z,104.82
2023-01-13T20:46:56.173Z,105.95
2023-01-13T20:49:26.431Z,104.07
2023-01-13T20:51:55.823Z,107.40
2023-01-13T20:54:24.200Z,100.53
2023-01-13T20:56:53.412Z,112.35
2023-01-13T20:59:21.951Z,100.53
2023-01-13T21:01:50.437Z,107.50
2023-01-13T21:04:18.764Z,81.80
2023-01-13T21:06:47.295Z,95.38
2023-01-13T21:09:16.134Z,93.18
2023-01-13T21:11:46.401Z,97.53
2023-01-13T21:14:26.528Z,114.13
2023-01-13T21:16:55.301Z,98.65
2023-01-13T21:19:23.482Z,94.43
2023-01-13T21:21:51.785Z,98.55
2023-01-13T21:24:19.862Z,78.78
2023-01-13T21:26:48.159Z,84.65
2023-01-13T21:29:16.515Z,95.63
2023-01-13T21:31:44.650Z,96.85
2023-01-13T21:34:12.968Z,95.90
2023-01-13T21:36:41.517Z,79.90
2023-01-13T21:39:10.886Z,96.78
2023-01-13T21:41:39.112Z,96.43
2023-01-13T21:44:19.516Z,86.80
2023-01-13T21:46:47.805Z,95.75
2023-01-13T21:49:16.270Z,90.60
2023-01-13T21:51:45.015Z,96.18
2023-01-13T21:54:13.449Z,96.15
2023-01-13T21:56:41.750Z,100.28
2023-01-13T21:59:09.967Z,98.20
2023-01-13T22:02:00.224Z,104.13
2023-01-13T22:04:26.565Z,137.13
2023-01-13T22:06:55.030Z,105.40
2023-01-13T22:09:23.223Z,89.15
2023-01-13T22:11:51.313Z,84.65
2023-01-13T22:14:19.804Z,108.68
2023-01-13T22:16:48.369Z,97.55
2023-01-13T22:19:17.086Z,132.85
2023-01-13T22:21:49.518Z,138.25
2023-01-13T22:24:20.442Z,114.97
2023-01-13T22:26:52.045Z,100.97
2023-01-13T22:29:20.611Z,112.97
2023-01-13T22:31:49.221Z,121.72
2023-01-13T22:34:17.640Z,143.70
2023-01-13T22:36:45.986Z,127.60
2023-01-13T22:39:14.417Z,123.50
2023-01-13T22:41:42.756Z,108.85
2023-01-13T22:44:11.108Z,109.63
2023-01-13T22:46:39.494Z,148.48
2023-01-13T22:49:08.041Z,165.32
2023-01-13T22:51:36.571Z,224.43
2023-01-13T22:54:05.280Z,185.50
2023-01-13T22:56:33.867Z,130.52
2023-01-13T22:59:04.242Z,187.27
2023-01-13T23:01:35.889Z,144.32
2023-01-13T23:04:05.089Z,156.57
2023-01-13T23:06:36.451Z,151.98
2023-01-13T23:09:05.162Z,172.98
2023-01-13T23:11:34.096Z,140.30
2023-01-13T23:14:05.115Z,119.00
2023-01-13T23:16:36.954Z,106.03
2023-01-13T23:19:07.298Z,123.32
2023-01-13T23:21:38.350Z,114.68
2023-01-13T23:24:07.612Z,136.88
2023-01-13T23:26:36.120Z,123.57
2023-01-13T23:29:09.907Z,121.70
2023-01-13T23:31:39.248Z,145.02
2023-01-13T23:34:09.278Z,123.72
2023-01-13T23:36:38.015Z,101.47
2023-01-13T23:39:06.249Z,108.50
2023-01-13T23:41:34.630Z,103.32
2023-01-13T23:44:02.903Z,101.30
2023-01-13T23:46:32.147Z,118.43
2023-01-13T23:49:01.642Z,103.00
2023-01-13T23:51:29.950Z,112.35
2023-01-13T23:53:58.934Z,143.20
2023-01-13T23:56:30.073Z,152.25
2023-01-13T23:58:58.765Z,137.80
